Time;durP1;ratioP1;P1;durP2;ratioP2;P2;SDS_P1;SDS_P2;PMS_P1;PMS_P2;Temp;Humidity;BMP_temperature;BMP_pressure;BME280_temperature;BME280_humidity;BME280_pressure;Samples;Min_cycle;Max_cycle;Signal;HPM_P1;HPM_P2
2022/12/08 00:00:01;;;;;;;0.98;0.20;;;2.40;99.90;;;;;;5118904;27;20076;-87
2022/12/08 00:02:27;;;;;;;0.20;0.10;;;3.60;99.90;;;;;;5106916;28;20075;-87
2022/12/08 00:10:22;;;;;;;0.80;0.10;;;1.90;99.90;;;;;;5118905;27;20055;-86
2022/12/08 00:12:47;;;;;;;0.10;0.10;;;2.20;99.90;;;;;;5104503;27;20035;-88
2022/12/08 00:15:13;;;;;;;0.10;0.10;;;1.80;99.90;;;;;;5127327;27;20039;-85
2022/12/08 00:17:39;;;;;;;0.80;0.20;;;2.10;99.90;;;;;;5121182;27;20497;-86
2022/12/08 00:20:05;;;;;;;0.30;0.13;;;2.10;99.90;;;;;;5103770;27;20035;-86
2022/12/08 00:22:31;;;;;;;2.63;0.10;;;2.10;99.90;;;;;;5125552;27;20043;-86
2022/12/08 00:24:57;;;;;;;0.10;0.10;;;2.10;99.90;;;;;;5132459;27;20380;-86
2022/12/08 00:27:22;;;;;;;0.32;0.15;;;2.20;99.90;;;;;;5106574;27;20047;-86
2022/12/08 00:29:48;;;;;;;1.77;0.20;;;3.00;99.90;;;;;;5125116;27;20430;-87
2022/12/08 00:32:14;;;;;;;2.90;0.30;;;2.10;99.90;;;;;;5115227;27;20053;-86
2022/12/08 00:34:39;;;;;;;2.17;0.20;;;2.00;99.90;;;;;;5113604;27;20039;-87
2022/12/08 00:37:05;;;;;;;1.40;0.20;;;1.80;99.90;;;;;;5106431;27;20035;-85
2022/12/08 00:39:31;;;;;;;2.28;0.20;;;2.40;99.90;;;;;;5096008;28;20036;-87
2022/12/08 00:42:11;;;;;;;1.88;0.20;;;2.00;99.90;;;;;;5096589;28;20039;-85
2022/12/08 00:44:38;;;;;;;0.38;0.13;;;2.10;99.90;;;;;;5105934;27;20051;-85
2022/12/08 00:47:04;;;;;;;2.72;0.20;;;1.50;99.90;;;;;;5101207;28;20043;-89
2022/12/08 00:49:30;;;;;;;0.30;0.20;;;2.80;99.90;;;;;;5119925;27;20095;-85
2022/12/08 00:51:56;;;;;;;0.20;0.20;;;3.30;99.90;;;;;;5103475;28;20035;-87
2022/12/08 00:54:22;;;;;;;0.93;0.20;;;2.50;99.90;;;;;;5103236;27;20050;-87
2022/12/08 00:56:48;;;;;;;0.47;0.10;;;2.80;99.90;;;;;;5113428;28;20051;-88
2022/12/08 00:59:14;;;;;;;0.57;0.20;;;2.10;99.90;;;;;;5095739;28;20111;-86
2022/12/08 01:01:39;;;;;;;0.25;0.20;;;2.20;99.90;;;;;;5123517;27;20051;-89
2022/12/08 01:04:09;;;;;;;0.10;0.10;;;3.30;99.90;;;;;;5126539;27;20035;-88
2022/12/08 01:06:35;;;;;;;0.10;0.10;;;2.90;99.90;;;;;;5103139;28;20051;-86
2022/12/08 01:09:03;;;;;;;1.65;0.30;;;1.70;99.90;;;;;;5116934;28;20124;-88
2022/12/08 01:11:30;;;;;;;0.15;0.15;;;3.30;99.90;;;;;;5098791;28;20074;-87
2022/12/08 01:13:58;;;;;;;0.43;0.15;;;2.60;99.90;;;;;;5102982;28;20395;-86
2022/12/08 01:16:26;;;;;;;0.98;0.30;;;2.20;99.90;;;;;;5121282;28;20114;-86
2022/12/08 01:18:53;;;;;;;0.45;0.10;;;2.40;99.90;;;;;;5103457;28;20091;-86
2022/12/08 01:21:21;;;;;;;1.35;0.20;;;2.20;99.90;;;;;;5120018;28;20052;-86
2022/12/08 01:23:47;;;;;;;1.85;0.10;;;2.70;99.90;;;;;;5097775;28;20134;-87
2022/12/08 01:26:15;;;;;;;0.10;0.10;;;3.20;99.90;;;;;;5124665;28;20047;-86
2022/12/08 01:28:41;;;;;;;0.82;0.20;;;2.20;99.90;;;;;;5105922;28;20169;-85
2022/12/08 01:31:14;;;;;;;0.52;0.20;;;3.60;99.90;;;;;;5130242;27;20505;-87
2022/12/08 01:33:39;;;;;;;4.60;0.20;;;2.00;99.90;;;;;;5119229;27;20047;-87
2022/12/08 01:36:06;;;;;;;0.20;0.20;;;2.40;99.90;;;;;;5111804;27;20031;-86
2022/12/08 01:38:35;;;;;;;1.40;0.20;;;2.40;99.90;;;;;;5109949;27;20131;-86
2022/12/08 01:41:01;;;;;;;1.35;0.25;;;2.40;99.90;;;;;;5130227;27;20043;-87
2022/12/08 01:43:51;;;;;;;0.25;0.20;;;2.90;99.90;;;;;;5104110;27;20039;-86
2022/12/08 01:46:17;;;;;;;1.40;0.22;;;2.90;99.90;;;;;;5092495;28;20046;-88
2022/12/08 01:48:43;;;;;;;0.45;0.17;;;2.60;99.90;;;;;;5106651;28;20043;-86
2022/12/08 01:51:09;;;;;;;1.85;0.20;;;3.90;99.90;;;;;;5103401;27;20498;-86
2022/12/08 01:53:35;;;;;;;2.58;0.22;;;3.90;99.90;;;;;;5121396;27;20510;-89
2022/12/08 01:56:09;;;;;;;2.30;0.22;;;3.10;99.90;;;;;;5104082;27;20399;-86
2022/12/08 01:58:38;;;;;;;0.10;0.10;;;2.60;99.90;;;;;;5110329;27;20046;-86
2022/12/08 02:01:05;;;;;;;0.10;0.10;;;3.40;99.90;;;;;;5120241;27;20110;-86
2022/12/08 02:03:37;;;;;;;0.10;0.10;;;2.40;99.90;;;;;;5103065;28;20044;-86
2022/12/08 02:06:03;;;;;;;0.20;0.10;;;3.60;99.90;;;;;;5116361;28;20050;-86
2022/12/08 02:08:30;;;;;;;0.10;0.10;;;2.40;99.90;;;;;;5130786;27;20145;-87
2022/12/08 02:10:56;;;;;;;0.40;0.10;;;2.70;99.90;;;;;;5118144;27;20051;-87
2022/12/08 02:13:23;;;;;;;0.10;0.10;;;2.30;99.90;;;;;;5122696;27;20039;-86
2022/12/08 02:16:13;;;;;;;0.75;0.20;;;3.20;99.90;;;;;;5124300;27;20043;-86
2022/12/08 02:18:39;;;;;;;0.50;0.20;;;2.30;99.90;;;;;;5099462;27;20039;-85
2022/12/08 02:21:10;;;;;;;0.10;0.10;;;3.30;99.90;;;;;;5101362;27;20116;-86
2022/12/08 02:24:10;;;;;;;0.10;0.10;;;2.30;99.90;;;;;;5120009;27;20442;-86
2022/12/08 02:27:00;;;;;;;0.10;0.10;;;2.30;99.90;;;;;;5099172;27;20061;-88
2022/12/08 02:29:31;;;;;;;0.10;0.10;;;2.30;99.90;;;;;;5109478;28;20043;-87
2022/12/08 02:32:18;;;;;;;0.10;0.10;;;2.30;99.90;;;;;;5124055;27;20118;-87
2022/12/08 02:35:02;;;;;;;0.20;0.20;;;2.30;99.90;;;;;;5105904;28;20050;-86
2022/12/08 02:37:42;;;;;;;0.30;0.10;;;2.30;99.90;;;;;;5115678;27;20079;-88
2022/12/08 02:40:35;;;;;;;0.10;0.10;;;2.30;99.90;;;;;;5100686;28;20524;-86
2022/12/08 02:43:29;;;;;;;0.10;0.10;;;2.30;99.90;;;;;;5114937;27;20073;-87
2022/12/08 02:46:06;;;;;;;2.00;0.30;;;2.30;99.90;;;;;;5100475;28;20092;-85
2022/12/08 02:48:36;;;;;;;0.10;0.10;;;2.30;99.90;;;;;;5126265;27;20038;-84
2022/12/08 02:51:03;;;;;;;0.10;0.10;;;2.50;99.90;;;;;;5100215;27;20115;-85
2022/12/08 02:53:31;;;;;;;0.10;0.10;;;2.20;99.90;;;;;;5105416;28;20051;-87
2022/12/08 02:56:20;;;;;;;0.55;0.20;;;2.20;99.90;;;;;;5123682;27;20114;-85
2022/12/08 02:59:04;;;;;;;0.20;0.20;;;2.20;99.90;;;;;;5019463;28;20046;-88
2022/12/08 03:01:52;;;;;;;0.10;0.10;;;2.20;99.90;;;;;;5015365;28;20045;-85
2022/12/08 03:04:39;;;;;;;0.10;0.10;;;2.10;99.90;;;;;;5023705;28;20057;-89
2022/12/08 03:07:20;;;;;;;0.10;0.10;;;2.10;99.90;;;;;;4996483;28;20097;-87
2022/12/08 03:10:01;;;;;;;0.45;0.13;;;2.10;99.90;;;;;;5019091;28;20430;-86
2022/12/08 03:12:43;;;;;;;0.10;0.10;;;2.20;99.90;;;;;;5005353;28;20157;-85
2022/12/08 03:15:15;;;;;;;0.10;0.10;;;2.00;99.90;;;;;;5005510;28;20367;-86
2022/12/08 03:17:49;;;;;;;0.10;0.10;;;1.40;99.90;;;;;;5017557;28;20518;-86
2022/12/08 03:20:21;;;;;;;0.80;0.10;;;2.00;99.90;;;;;;5015952;28;20626;-85
2022/12/08 03:22:49;;;;;;;0.63;0.20;;;2.00;99.90;;;;;;5007204;28;20161;-86
2022/12/08 03:25:18;;;;;;;0.52;0.10;;;2.70;99.90;;;;;;5021924;28;20049;-86
2022/12/08 03:27:44;;;;;;;0.47;0.20;;;2.00;99.90;;;;;;5004132;28;20399;-87
2022/12/08 03:30:10;;;;;;;0.45;0.10;;;3.00;99.90;;;;;;5020073;28;20052;-86
2022/12/08 03:32:45;;;;;;;0.10;0.10;;;1.90;99.90;;;;;;4988085;28;20038;-86
2022/12/08 03:35:13;;;;;;;;;;;1.90;99.90;;;;;;5028704;27;20055;-86
2022/12/08 03:37:40;;;;;;;0.65;0.10;;;2.60;99.90;;;;;;5125180;27;20363;-86
2022/12/08 03:40:08;;;;;;;0.10;0.10;;;3.10;99.90;;;;;;5119028;27;20379;-86
2022/12/08 03:42:34;;;;;;;0.10;0.10;;;1.80;99.90;;;;;;5104934;27;20123;-85
2022/12/08 03:45:00;;;;;;;0.10;0.10;;;1.70;99.90;;;;;;5097808;27;20491;-86
2022/12/08 03:47:25;;;;;;;0.10;0.10;;;1.60;99.90;;;;;;5105271;27;20138;-87
2022/12/08 03:49:51;;;;;;;0.32;0.15;;;2.30;99.90;;;;;;5115015;27;20447;-86
2022/12/08 03:52:17;;;;;;;0.43;0.10;;;1.80;99.90;;;;;;5103730;27;20046;-85
2022/12/08 03:54:42;;;;;;;0.13;0.13;;;1.80;99.90;;;;;;5088735;28;20039;-85
2022/12/08 03:57:08;;;;;;;0.10;0.10;;;3.10;99.90;;;;;;5122472;27;20040;-85
2022/12/08 03:59:34;;;;;;;0.10;0.10;;;1.90;99.90;;;;;;5120540;27;20039;-86
2022/12/08 04:01:59;;;;;;;0.10;0.10;;;1.70;99.90;;;;;;5115788;27;20075;-87
2022/12/08 04:04:25;;;;;;;0.38;0.10;;;3.00;99.90;;;;;;5122898;27;20050;-87
2022/12/08 04:06:51;;;;;;;0.10;0.10;;;2.80;99.90;;;;;;5121984;27;20039;-87
2022/12/08 04:09:16;;;;;;;0.90;0.00;;;2.30;99.90;;;;;;5093332;28;20044;-87
2022/12/08 04:11:42;;;;;;;0.65;0.10;;;2.20;99.90;;;;;;5124703;27;20042;-87
2022/12/08 04:14:08;;;;;;;0.10;0.10;;;1.40;99.90;;;;;;5125779;27;20049;-86
2022/12/08 04:16:33;;;;;;;0.13;0.10;;;2.00;99.90;;;;;;5123431;27;20408;-89
2022/12/08 04:18:59;;;;;;;0.10;0.10;;;2.00;99.90;;;;;;5101682;28;20035;-86
2022/12/08 04:21:25;;;;;;;0.13;0.13;;;1.90;99.90;;;;;;5103044;27;20093;-85
2022/12/08 04:23:51;;;;;;;0.10;0.10;;;2.90;99.90;;;;;;5096044;28;20156;-87
2022/12/08 04:26:17;;;;;;;0.20;0.20;;;2.80;99.90;;;;;;5103586;28;20052;-87
2022/12/08 04:28:42;;;;;;;0.10;0.10;;;2.40;99.90;;;;;;5111711;27;20113;-86
2022/12/08 04:31:08;;;;;;;0.10;0.10;;;2.10;99.90;;;;;;5104371;28;20036;-86
2022/12/08 04:33:34;;;;;;;0.20;0.10;;;2.90;99.90;;;;;;5107494;27;20399;-86
2022/12/08 04:36:00;;;;;;;0.57;0.10;;;1.70;99.90;;;;;;5121050;27;20188;-86
2022/12/08 04:38:27;;;;;;;0.10;0.10;;;2.20;99.90;;;;;;5121811;27;20418;-86
2022/12/08 04:40:53;;;;;;;0.17;0.17;;;3.20;99.90;;;;;;5114045;27;20080;-87
2022/12/08 04:43:18;;;;;;;2.10;0.40;;;2.90;99.90;;;;;;5095408;28;20079;-86
2022/12/08 04:45:45;;;;;;;0.10;0.10;;;3.30;99.90;;;;;;5103164;28;20457;-86
2022/12/08 04:48:12;;;;;;;1.10;0.20;;;2.20;99.90;;;;;;5118827;27;20084;-84
2022/12/08 04:50:40;;;;;;;2.83;0.28;;;2.50;99.90;;;;;;5116826;27;20434;-84
2022/12/08 04:53:06;;;;;;;0.90;0.20;;;2.20;99.90;;;;;;5105075;27;20130;-88
2022/12/08 04:55:32;;;;;;;0.35;0.20;;;2.90;99.90;;;;;;5124182;27;20036;-85
2022/12/08 04:57:58;;;;;;;1.65;0.20;;;2.90;99.90;;;;;;5121224;27;20031;-87
2022/12/08 05:00:23;;;;;;;0.30;0.10;;;3.00;99.90;;;;;;5120495;27;20038;-86
2022/12/08 05:02:49;;;;;;;0.10;0.10;;;3.40;99.90;;;;;;5124353;27;20392;-85
2022/12/08 05:05:15;;;;;;;0.10;0.10;;;3.00;99.90;;;;;;5120660;27;20099;-86
2022/12/08 05:07:40;;;;;;;0.00;0.00;;;2.30;99.90;;;;;;5121605;28;20044;-87
2022/12/08 05:10:07;;;;;;;0.10;0.10;;;2.30;99.90;;;;;;5095187;28;20554;-86
2022/12/08 05:12:33;;;;;;;0.10;0.10;;;2.30;99.90;;;;;;5120930;28;20507;-88
2022/12/08 05:14:58;;;;;;;0.10;0.10;;;1.00;99.90;;;;;;5108889;28;20050;-86
2022/12/08 05:17:24;;;;;;;0.20;0.10;;;3.40;99.90;;;;;;5126134;28;20484;-85
2022/12/08 05:19:50;;;;;;;0.10;0.10;;;3.00;99.90;;;;;;5103482;28;20065;-86
2022/12/08 05:22:15;;;;;;;0.10;0.10;;;2.40;99.90;;;;;;5120022;28;20487;-85
2022/12/08 05:24:41;;;;;;;0.28;0.20;;;2.20;99.90;;;;;;5120923;28;20392;-86
2022/12/08 05:27:08;;;;;;;0.75;0.10;;;3.30;99.90;;;;;;5120963;28;20055;-86
2022/12/08 05:29:34;;;;;;;2.20;0.10;;;2.20;99.90;;;;;;5118560;28;20540;-86
2022/12/08 05:31:59;;;;;;;0.65;0.10;;;2.20;99.90;;;;;;5121306;28;20217;-86
2022/12/08 05:34:25;;;;;;;0.70;0.10;;;2.20;99.90;;;;;;5102458;28;20039;-86
2022/12/08 05:36:51;;;;;;;0.10;0.10;;;2.60;99.90;;;;;;5120765;28;20072;-87
2022/12/08 05:39:16;;;;;;;1.25;0.20;;;2.70;99.90;;;;;;5095300;28;20048;-85
2022/12/08 05:41:42;;;;;;;0.85;0.10;;;2.10;99.90;;;;;;5102749;28;20028;-85
2022/12/08 05:44:08;;;;;;;2.15;0.43;;;3.80;99.90;;;;;;5102350;28;20047;-88
2022/12/08 05:46:34;;;;;;;0.22;0.10;;;3.00;99.90;;;;;;5120895;28;20132;-87
2022/12/08 05:49:03;;;;;;;1.45;0.20;;;2.20;99.90;;;;;;5129355;28;20041;-86
2022/12/08 05:51:29;;;;;;;0.57;0.20;;;3.00;99.90;;;;;;5118447;28;20522;-84
2022/12/08 05:53:55;;;;;;;1.55;0.20;;;2.50;99.90;;;;;;5124034;28;20126;-88
2022/12/08 05:56:21;;;;;;;0.30;0.10;;;3.00;99.90;;;;;;5102255;28;20071;-86
2022/12/08 05:58:47;;;;;;;2.13;0.10;;;2.40;99.90;;;;;;5121041;28;20067;-87
2022/12/08 06:01:23;;;;;;;0.80;0.10;;;2.20;99.90;;;;;;5122045;28;20050;-87
2022/12/08 06:03:48;;;;;;;0.10;0.10;;;2.00;99.90;;;;;;5097917;28;20039;-86
2022/12/08 06:06:14;;;;;;;0.10;0.10;;;1.70;99.90;;;;;;5113073;28;20043;-86
2022/12/08 06:08:40;;;;;;;0.10;0.10;;;3.20;99.90;;;;;;5104210;28;20035;-86
2022/12/08 06:11:06;;;;;;;0.10;0.10;;;2.30;99.90;;;;;;5125350;28;20563;-85
2022/12/08 06:13:31;;;;;;;1.05;0.10;;;2.00;99.90;;;;;;5097165;28;20130;-85
2022/12/08 06:16:05;;;;;;;0.40;0.20;;;3.40;99.90;;;;;;5126633;27;20043;-85
2022/12/08 06:18:31;;;;;;;0.10;0.10;;;1.90;99.90;;;;;;5124959;27;20035;-89
2022/12/08 06:21:04;;;;;;;0.10;0.10;;;1.80;99.90;;;;;;5125459;27;20040;-85
2022/12/08 06:23:30;;;;;;;0.70;0.20;;;1.10;99.90;;;;;;5128097;27;20399;-86
2022/12/08 06:26:00;;;;;;;0.10;0.10;;;1.70;99.90;;;;;;5108074;28;20036;-87
2022/12/08 06:28:26;;;;;;;0.70;0.20;;;2.20;99.90;;;;;;5098199;28;20039;-87
2022/12/08 06:30:52;;;;;;;0.98;0.10;;;2.50;99.90;;;;;;5105294;27;20043;-87
2022/12/08 06:33:18;;;;;;;0.10;0.10;;;2.30;99.90;;;;;;5107384;27;20054;-86
2022/12/08 06:35:43;;;;;;;1.30;0.20;;;1.70;99.90;;;;;;5129673;27;20114;-87
2022/12/08 06:38:09;;;;;;;0.63;0.55;;;1.70;99.90;;;;;;5118607;27;20048;-86
2022/12/08 06:40:35;;;;;;;0.30;0.30;;;2.20;99.90;;;;;;5130090;27;20062;-88
2022/12/08 06:43:00;;;;;;;0.55;0.17;;;1.60;99.90;;;;;;5130670;27;20046;-88
2022/12/08 06:45:26;;;;;;;0.15;0.10;;;1.60;99.90;;;;;;5124020;27;20117;-89
2022/12/08 06:47:52;;;;;;;0.10;0.10;;;2.00;99.90;;;;;;5105910;28;20472;-90
2022/12/08 06:50:17;;;;;;;0.52;0.17;;;1.50;99.90;;;;;;5106547;27;20043;-89
2022/12/08 06:52:44;;;;;;;0.17;0.13;;;1.40;99.90;;;;;;5121764;27;20131;-90
2022/12/08 06:55:11;;;;;;;0.28;0.20;;;1.40;99.90;;;;;;5112981;27;20039;-89
2022/12/08 06:57:38;;;;;;;0.30;0.20;;;2.90;99.90;;;;;;5104350;27;20039;-85
2022/12/08 07:00:04;;;;;;;0.47;0.22;;;1.50;99.90;;;;;;5125119;27;20063;-90
2022/12/08 07:02:33;;;;;;;0.47;0.20;;;1.40;99.90;;;;;;5128168;27;20051;-87
2022/12/08 07:04:58;;;;;;;0.75;0.30;;;2.20;99.90;;;;;;5126091;27;20069;-89
2022/12/08 07:07:24;;;;;;;0.60;0.30;;;2.10;99.90;;;;;;5111129;27;20073;-92
2022/12/08 07:09:59;;;;;;;0.30;0.20;;;1.40;99.90;;;;;;5130706;27;20048;-91
2022/12/08 07:12:25;;;;;;;0.25;0.20;;;1.80;99.90;;;;;;5079537;28;20071;-89
2022/12/08 07:14:53;;;;;;;0.10;0.10;;;1.90;99.90;;;;;;5067410;28;20067;-87
2022/12/08 07:17:19;;;;;;;0.10;0.10;;;1.30;99.90;;;;;;5062708;28;20049;-89
2022/12/08 07:19:45;;;;;;;0.40;0.30;;;0.60;99.90;;;;;;5082163;28;20051;-89
2022/12/08 07:22:13;;;;;;;2.67;0.30;;;1.20;99.90;;;;;;5083515;28;20067;-90
2022/12/08 07:24:39;;;;;;;2.78;0.30;;;1.20;99.90;;;;;;5062390;28;20041;-90
2022/12/08 07:27:07;;;;;;;0.20;0.20;;;1.10;99.90;;;;;;5063447;28;20037;-87
2022/12/08 07:29:33;;;;;;;0.20;0.20;;;1.20;99.90;;;;;;5057918;28;20455;-88
2022/12/08 07:31:59;;;;;;;0.63;0.20;;;1.10;99.90;;;;;;5057535;28;20101;-87
2022/12/08 07:34:24;;;;;;;0.35;0.13;;;0.10;99.90;;;;;;5073882;28;20426;-87
2022/12/08 07:36:50;;;;;;;1.02;0.10;;;2.10;99.90;;;;;;5057630;28;20044;-91
2022/12/08 07:39:16;;;;;;;0.10;0.10;;;1.00;99.90;;;;;;5058033;28;20052;-90
2022/12/08 07:41:44;;;;;;;0.10;0.10;;;0.90;99.90;;;;;;5056997;28;20493;-93
2022/12/08 07:44:10;;;;;;;0.17;0.17;;;1.00;99.90;;;;;;5075020;28;20051;-88
2022/12/08 07:46:35;;;;;;;0.20;0.20;;;0.90;99.90;;;;;;5056474;28;20044;-91
2022/12/08 07:49:01;;;;;;;0.13;0.13;;;0.90;99.90;;;;;;5057628;28;20045;-86
2022/12/08 07:51:27;;;;;;;1.08;0.30;;;0.90;99.90;;;;;;5074228;28;20048;-87
2022/12/08 07:53:53;;;;;;;0.38;0.28;;;1.10;99.90;;;;;;5074116;28;20412;-88
2022/12/08 07:56:21;;;;;;;0.30;0.20;;;0.80;99.90;;;;;;5056544;28;20098;-87
2022/12/08 07:58:47;;;;;;;0.20;0.20;;;1.00;99.90;;;;;;5073446;28;20033;-86
2022/12/08 08:01:30;;;;;;;0.28;0.20;;;0.90;99.90;;;;;;5073445;28;20109;-90
2022/12/08 08:04:00;;;;;;;0.35;0.20;;;0.20;99.90;;;;;;5039103;28;20036;-88
2022/12/08 08:06:26;;;;;;;0.63;0.40;;;0.80;99.90;;;;;;5055807;28;20051;-89
2022/12/08 08:08:52;;;;;;;1.17;0.30;;;1.00;99.90;;;;;;5073516;28;20096;-89
2022/12/08 08:11:21;;;;;;;0.30;0.20;;;0.60;99.90;;;;;;5072658;28;20464;-89
2022/12/08 08:13:46;;;;;;;0.30;0.20;;;0.40;99.90;;;;;;5073280;28;20595;-90
2022/12/08 08:16:12;;;;;;;0.20;0.20;;;1.30;99.90;;;;;;5055821;28;20041;-89
2022/12/08 08:18:39;;;;;;;0.20;0.20;;;1.50;99.90;;;;;;5055888;28;20041;-90
2022/12/08 08:21:14;;;;;;;0.20;0.20;;;0.40;99.90;;;;;;5055557;28;20056;-88
2022/12/08 08:23:39;;;;;;;0.30;0.20;;;1.10;99.90;;;;;;5072948;28;20520;-88
2022/12/08 08:26:05;;;;;;;0.30;0.20;;;1.80;99.90;;;;;;5055336;28;20050;-88
2022/12/08 08:28:31;;;;;;;1.55;0.20;;;0.90;99.90;;;;;;5055100;28;20048;-89
2022/12/08 08:31:00;;;;;;;0.50;0.20;;;1.20;99.90;;;;;;5073738;28;20037;-87
2022/12/08 08:33:26;;;;;;;0.60;0.22;;;1.30;99.90;;;;;;5073416;28;20068;-88
2022/12/08 08:35:53;;;;;;;0.35;0.25;;;1.90;99.90;;;;;;5056012;28;20029;-88
2022/12/08 08:38:19;;;;;;;0.80;0.40;;;1.20;99.90;;;;;;5055440;28;20094;-87
2022/12/08 08:40:45;;;;;;;0.30;0.30;;;1.20;99.90;;;;;;5055337;28;20486;-87
2022/12/08 08:43:27;;;;;;;0.22;0.22;;;2.10;99.90;;;;;;5055548;28;20389;-88
2022/12/08 08:46:03;;;;;;;0.22;0.20;;;1.20;99.90;;;;;;5055634;28;20508;-86
2022/12/08 08:48:30;;;;;;;2.05;0.40;;;1.30;99.90;;;;;;5055320;28;20518;-87
2022/12/08 08:50:57;;;;;;;0.40;0.40;;;1.30;99.90;;;;;;5073409;28;20047;-87
2022/12/08 08:53:23;;;;;;;0.57;0.38;;;2.40;99.90;;;;;;5055284;28;20055;-88
2022/12/08 08:55:49;;;;;;;3.65;0.50;;;1.30;99.90;;;;;;5073063;28;20072;-86
2022/12/08 08:58:15;;;;;;;0.85;0.30;;;1.40;99.90;;;;;;5055110;28;20045;-87
2022/12/08 09:00:41;;;;;;;3.25;0.40;;;2.30;99.90;;;;;;5055386;28;20044;-87
2022/12/08 09:03:07;;;;;;;1.00;0.30;;;3.00;99.90;;;;;;5055057;28;20409;-87
2022/12/08 09:05:33;;;;;;;0.40;0.40;;;2.30;99.90;;;;;;5073146;28;20048;-87
2022/12/08 09:07:58;;;;;;;0.20;0.20;;;2.10;99.90;;;;;;5055297;28;20040;-88
2022/12/08 09:10:24;;;;;;;0.30;0.30;;;2.50;99.90;;;;;;5055001;28;20131;-88
2022/12/08 09:12:50;;;;;;;0.65;0.30;;;2.40;99.90;;;;;;5055052;28;20053;-88
2022/12/08 09:15:16;;;;;;;3.03;0.28;;;2.50;99.90;;;;;;5055526;28;20040;-89
2022/12/08 09:17:42;;;;;;;0.75;0.20;;;1.70;99.90;;;;;;5073092;28;20036;-88
2022/12/08 09:20:08;;;;;;;1.05;0.28;;;2.60;99.90;;;;;;5055365;28;20370;-88
2022/12/08 09:22:33;;;;;;;0.65;0.30;;;1.90;99.90;;;;;;5055101;28;20071;-87
2022/12/08 09:24:59;;;;;;;0.20;0.20;;;2.80;99.90;;;;;;5054997;28;20053;-89
2022/12/08 09:27:25;;;;;;;0.13;0.13;;;1.80;99.90;;;;;;5072985;28;20041;-87
2022/12/08 09:29:51;;;;;;;0.10;0.10;;;2.90;99.90;;;;;;5054877;28;20500;-88
2022/12/08 09:32:16;;;;;;;1.27;0.32;;;3.30;99.90;;;;;;5073039;28;20040;-89
2022/12/08 09:34:42;;;;;;;1.50;0.82;;;2.50;99.90;;;;;;5055095;28;20044;-89
2022/12/08 09:37:08;;;;;;;0.60;0.30;;;3.40;99.90;;;;;;5055014;28;20049;-88
2022/12/08 09:39:33;;;;;;;0.30;0.30;;;3.30;99.90;;;;;;5038240;28;20075;-88
2022/12/08 09:42:01;;;;;;;1.35;0.20;;;2.20;99.90;;;;;;5072468;28;20047;-87
2022/12/08 09:44:30;;;;;;;1.17;0.20;;;2.10;99.90;;;;;;5054824;28;20105;-87
2022/12/08 09:46:59;;;;;;;1.90;0.40;;;2.80;99.90;;;;;;5072712;28;20056;-86
2022/12/08 09:49:41;;;;;;;0.20;0.20;;;2.80;99.90;;;;;;5073795;28;20142;-87
2022/12/08 09:52:28;;;;;;;2.90;0.20;;;2.20;99.90;;;;;;5042246;28;20059;-88
2022/12/08 09:54:59;;;;;;;0.20;0.20;;;2.20;99.90;;;;;;5076595;28;20048;-87
2022/12/08 09:57:25;;;;;;;1.27;0.28;;;2.20;99.90;;;;;;5058770;28;20056;-86
2022/12/08 09:59:56;;;;;;;0.30;0.30;;;1.20;99.90;;;;;;5058888;28;20071;-86
2022/12/08 10:02:25;;;;;;;2.85;0.35;;;2.80;99.90;;;;;;5058395;28;20086;-88
2022/12/08 10:04:54;;;;;;;0.52;0.20;;;3.90;99.90;;;;;;5076592;28;20400;-86
2022/12/08 10:07:34;;;;;;;2.75;0.30;;;4.00;99.90;;;;;;5058316;28;20491;-87
2022/12/08 10:10:25;;;;;;;0.60;0.25;;;2.60;99.90;;;;;;5041723;28;20095;-87
2022/12/08 10:12:53;;;;;;;1.23;0.20;;;2.20;99.90;;;;;;5076089;28;20229;-88
2022/12/08 10:15:46;;;;;;;0.38;0.20;;;2.40;99.90;;;;;;5075999;28;20037;-88
2022/12/08 10:18:33;;;;;;;1.92;0.30;;;2.20;99.90;;;;;;5076089;28;20084;-88
2022/12/08 10:21:21;;;;;;;4.32;0.40;;;2.30;99.90;;;;;;5076024;28;20385;-89
2022/12/08 10:23:51;;;;;;;2.45;0.30;;;3.40;99.90;;;;;;5075810;28;20086;-88
2022/12/08 10:26:20;;;;;;;2.17;0.25;;;2.00;99.90;;;;;;5075811;28;20485;-88
2022/12/08 10:28:46;;;;;;;0.95;0.35;;;3.70;99.90;;;;;;5057639;28;20044;-89
2022/12/08 10:31:23;;;;;;;0.45;0.30;;;3.00;99.90;;;;;;5057962;28;20044;-88
2022/12/08 10:34:19;;;;;;;0.32;0.20;;;3.50;99.90;;;;;;5058097;28;20044;-88
2022/12/08 10:36:52;;;;;;;0.20;0.20;;;3.80;99.90;;;;;;5075644;28;20076;-88
2022/12/08 10:39:36;;;;;;;0.28;0.13;;;2.80;99.90;;;;;;5075863;28;20044;-88
2022/12/08 10:42:14;;;;;;;0.20;0.20;;;2.80;99.90;;;;;;5041205;28;20122;-88
2022/12/08 10:45:08;;;;;;;0.90;0.20;;;2.90;99.90;;;;;;5040934;28;20457;-88
2022/12/08 10:47:39;;;;;;;0.13;0.13;;;2.90;99.90;;;;;;5057181;28;20060;-88
2022/12/08 10:50:45;;;;;;;0.08;0.08;;;3.50;99.90;;;;;;5039962;28;20516;-84
2022/12/08 10:53:12;;;;;;;0.35;0.20;;;3.10;99.90;;;;;;5057153;28;20400;-89
2022/12/08 10:56:05;;;;;;;0.20;0.10;;;3.20;99.90;;;;;;5074876;28;20044;-88
2022/12/08 10:58:35;;;;;;;0.20;0.10;;;3.40;99.90;;;;;;5056122;28;20615;-85
2022/12/08 11:01:24;;;;;;;0.52;0.20;;;2.70;99.90;;;;;;5040095;28;20040;-86
2022/12/08 11:03:56;;;;;;;0.57;0.13;;;3.50;99.90;;;;;;5066265;28;20416;-85
2022/12/08 11:06:32;;;;;;;0.73;0.20;;;3.60;99.90;;;;;;5074482;28;20405;-85
2022/12/08 11:09:02;;;;;;;0.20;0.20;;;3.60;99.90;;;;;;5074712;28;20040;-88
2022/12/08 11:11:46;;;;;;;0.30;0.10;;;3.70;99.90;;;;;;5073911;28;20059;-86
2022/12/08 11:14:21;;;;;;;0.10;0.10;;;3.70;99.90;;;;;;5056949;28;20382;-88
2022/12/08 11:16:53;;;;;;;0.28;0.10;;;3.70;99.90;;;;;;5074302;28;20062;-88
2022/12/08 11:19:20;;;;;;;0.80;0.20;;;3.80;99.90;;;;;;5073612;28;20127;-88
2022/12/08 11:21:47;;;;;;;0.15;0.15;;;4.40;99.90;;;;;;5056814;28;20428;-88
2022/12/08 11:24:13;;;;;;;0.40;0.10;;;4.90;99.90;;;;;;5072779;28;20422;-88
2022/12/08 11:26:58;;;;;;;0.45;0.10;;;4.80;99.90;;;;;;5073366;28;20102;-88
2022/12/08 11:29:24;;;;;;;0.10;0.10;;;3.80;99.90;;;;;;5053950;28;20044;-86
2022/12/08 11:32:11;;;;;;;0.10;0.10;;;4.80;99.90;;;;;;5055484;28;20055;-87
2022/12/08 11:35:02;;;;;;;3.38;0.15;;;3.70;99.90;;;;;;5055985;28;20040;-87
2022/12/08 11:37:34;;;;;;;0.20;0.20;;;3.70;99.90;;;;;;5054943;28;20186;-86
2022/12/08 11:40:07;;;;;;;0.10;0.10;;;2.60;99.90;;;;;;5055028;28;20385;-87
2022/12/08 11:43:15;;;;;;;0.22;0.10;;;3.70;99.90;;;;;;5055753;28;20048;-87
2022/12/08 11:45:41;;;;;;;0.60;0.20;;;3.60;99.90;;;;;;5051878;28;20048;-88
2022/12/08 11:48:24;;;;;;;0.22;0.20;;;4.50;99.90;;;;;;5055530;28;20048;-87
2022/12/08 11:50:55;;;;;;;0.28;0.20;;;3.70;99.90;;;;;;5073526;28;20075;-88
2022/12/08 11:53:30;;;;;;;0.38;0.20;;;4.50;99.90;;;;;;5055599;28;20123;-88
2022/12/08 11:56:05;;;;;;;0.10;0.10;;;3.70;99.90;;;;;;5055657;28;20076;-88
2022/12/08 11:58:39;;;;;;;0.32;0.17;;;3.70;99.90;;;;;;5066400;28;20075;-88
2022/12/08 12:01:15;;;;;;;0.30;0.10;;;4.60;99.90;;;;;;5070919;28;20501;-85
2022/12/08 12:03:46;;;;;;;0.15;0.10;;;4.00;99.90;;;;;;5049211;28;20054;-88
2022/12/08 12:06:27;;;;;;;0.52;0.10;;;4.80;99.90;;;;;;5054638;28;20041;-87
2022/12/08 12:09:12;;;;;;;0.10;0.10;;;4.60;99.90;;;;;;5073532;28;20098;-86
2022/12/08 12:12:14;;;;;;;0.05;0.05;;;4.00;99.90;;;;;;5093451;28;20445;-87
2022/12/08 12:15:01;;;;;;;1.10;0.30;;;4.10;99.90;;;;;;5068164;28;20044;-86
2022/12/08 12:17:51;;;;;;;0.22;0.10;;;4.10;99.90;;;;;;5074851;28;20124;-85
2022/12/08 12:20:43;;;;;;;2.75;0.63;;;4.20;99.90;;;;;;5103883;28;20545;-87
2022/12/08 12:23:35;;;;;;;0.20;0.20;;;4.30;99.90;;;;;;5096952;28;20109;-89
2022/12/08 12:26:04;;;;;;;1.10;0.20;;;4.30;99.90;;;;;;4999796;28;20126;-86
2022/12/08 12:28:54;;;;;;;2.08;0.30;;;5.20;99.90;;;;;;4987780;28;20068;-85
2022/12/08 12:31:27;;;;;;;0.40;0.20;;;4.80;99.90;;;;;;4991537;28;20402;-86
2022/12/08 12:34:04;;;;;;;0.73;0.20;;;5.10;99.90;;;;;;5016496;28;20037;-86
2022/12/08 12:36:31;;;;;;;1.30;0.10;;;4.90;99.90;;;;;;5003261;28;20049;-86
2022/12/08 12:39:02;;;;;;;0.22;0.10;;;4.50;99.90;;;;;;5003157;28;20060;-86
2022/12/08 12:41:31;;;;;;;1.27;0.30;;;5.20;99.90;;;;;;5007432;28;20108;-87
2022/12/08 12:44:35;;;;;;;1.13;0.30;;;4.90;99.90;;;;;;5008387;28;20410;-88
2022/12/08 12:47:03;;;;;;;0.47;0.20;;;5.00;99.90;;;;;;5001730;28;21012;-86
2022/12/08 12:50:07;;;;;;;0.55;0.20;;;5.00;99.90;;;;;;5019183;28;20050;-87
2022/12/08 12:52:32;;;;;;;0.17;0.17;;;4.90;99.90;;;;;;5002208;28;20053;-87
2022/12/08 12:54:58;;;;;;;0.13;0.13;;;4.70;99.90;;;;;;5001788;28;20456;-87
2022/12/08 12:57:37;;;;;;;0.30;0.30;;;4.70;99.90;;;;;;5020103;28;20141;-88
2022/12/08 13:00:02;;;;;;;0.25;0.20;;;4.80;99.90;;;;;;4993907;28;20050;-87
2022/12/08 13:02:43;;;;;;;2.20;0.77;;;3.20;99.90;;;;;;5010354;28;20495;-89
2022/12/08 13:05:18;;;;;;;3.97;0.70;;;3.80;99.90;;;;;;5031057;28;20493;-88
2022/12/08 13:07:54;;;;;;;0.70;0.40;;;3.70;99.90;;;;;;5033508;28;20044;-89
2022/12/08 13:10:22;;;;;;;0.43;0.20;;;3.70;99.90;;;;;;5031270;28;20049;-89
2022/12/08 13:13:16;;;;;;;0.15;0.10;;;3.70;99.90;;;;;;5050086;28;20045;-87
2022/12/08 13:15:45;;;;;;;0.50;0.30;;;3.70;99.90;;;;;;5030579;28;20064;-86
2022/12/08 13:18:35;;;;;;;0.57;0.30;;;4.70;99.90;;;;;;5035188;28;20434;-87
2022/12/08 13:21:15;;;;;;;0.38;0.20;;;3.70;99.90;;;;;;4988564;28;20061;-87